Time;durP1;ratioP1;P1;durP2;ratioP2;P2;SDS_P1;SDS_P2;PMS_P1;PMS_P2;Temp;Humidity;BMP_temperature;BMP_pressure;BME280_temperature;BME280_humidity;BME280_pressure;Samples;Min_cycle;Max_cycle;Signal;HPM_P1;HPM_P2
2023/04/18 00:01:08;;;;;;;3.00;1.90;;;;;;;7.61;64.49;97136.89;110273;1242;58868;-75
2023/04/18 00:03:39;;;;;;;3.10;2.00;;;;;;;7.50;65.25;97135.70;110281;1242;70326;-73
2023/04/18 00:06:12;;;;;;;2.40;1.90;;;;;;;7.39;66.37;97139.34;110292;1242;69412;-73
2023/04/18 00:08:43;;;;;;;2.90;2.10;;;;;;;7.30;67.33;97144.27;110262;1241;68378;-75
2023/04/18 00:11:14;;;;;;;2.30;1.80;;;;;;;7.24;65.40;97141.22;110218;1241;59338;-74
2023/04/18 00:13:46;;;;;;;4.20;2.10;;;;;;;7.21;65.27;97141.56;110267;1242;59008;-74
2023/04/18 00:16:17;;;;;;;4.20;2.70;;;;;;;7.19;67.12;97141.54;110247;1242;68744;-74
2023/04/18 00:18:52;;;;;;;3.00;2.00;;;;;;;7.15;67.41;97142.45;110281;1242;68619;-74
2023/04/18 00:21:24;;;;;;;3.30;2.70;;;;;;;7.10;67.46;97142.74;110293;1242;68901;-74
2023/04/18 00:23:55;;;;;;;3.70;2.00;;;;;;;7.05;68.40;97145.46;110133;1244;58936;-74
2023/04/18 00:26:26;;;;;;;2.80;1.90;;;;;;;7.02;68.58;97146.88;110325;1240;58925;-73
2023/04/18 00:28:58;;;;;;;3.10;2.00;;;;;;;7.00;66.68;97144.44;110282;1241;71091;-73
2023/04/18 00:31:28;;;;;;;2.90;1.80;;;;;;;6.98;67.94;97145.59;110273;1242;69008;-73
2023/04/18 00:33:59;;;;;;;3.50;2.30;;;;;;;6.96;68.08;97142.98;110278;1242;69664;-73
2023/04/18 00:36:30;;;;;;;3.50;2.10;;;;;;;6.95;68.40;97142.87;110138;1241;58959;-73
2023/04/18 00:39:01;;;;;;;2.40;2.10;;;;;;;6.94;67.70;97142.04;110291;1242;59005;-75
2023/04/18 00:41:33;;;;;;;5.00;2.20;;;;;;;6.94;67.66;97141.69;110163;1245;69950;-73
2023/04/18 00:44:05;;;;;;;2.70;2.30;;;;;;;6.93;67.60;97138.80;110118;1241;68490;-73
2023/04/18 00:46:35;;;;;;;2.60;2.00;;;;;;;6.93;67.34;97139.65;110330;1242;68211;-75
2023/04/18 00:49:06;;;;;;;2.70;2.10;;;;;;;6.93;67.30;97136.92;110417;1243;58925;-74
2023/04/18 00:51:37;;;;;;;3.20;2.30;;;;;;;6.92;67.67;97141.98;110273;1242;58863;-74
2023/04/18 00:54:11;;;;;;;3.50;2.10;;;;;;;6.92;67.35;97137.82;110199;1240;70421;-74
2023/04/18 00:56:42;;;;;;;4.10;2.20;;;;;;;6.93;67.47;97135.37;110325;1242;69156;-75
2023/04/18 00:59:13;;;;;;;2.80;2.10;;;;;;;6.94;67.02;97135.80;110301;1241;69319;-74
2023/04/18 01:01:45;;;;;;;4.00;2.10;;;;;;;6.96;67.87;97134.50;110228;1242;58918;-74
2023/04/18 01:04:18;;;;;;;3.00;2.30;;;;;;;6.95;68.28;97135.08;110170;1241;58907;-74
2023/04/18 01:06:50;;;;;;;2.80;2.00;;;;;;;6.91;69.50;97133.20;110166;1240;70619;-74
2023/04/18 01:09:21;;;;;;;2.80;2.40;;;;;;;6.89;69.14;97130.56;110279;1240;68554;-74
2023/04/18 01:11:53;;;;;;;3.80;2.30;;;;;;;6.82;69.21;97134.96;110279;1241;69168;-73
2023/04/18 01:14:28;;;;;;;4.50;2.60;;;;;;;6.76;68.99;97130.85;110289;1242;58878;-74
2023/04/18 01:17:09;;;;;;;4.00;2.40;;;;;;;6.66;70.10;97130.59;110286;1242;58967;-74
2023/04/18 01:19:41;;;;;;;3.80;2.50;;;;;;;6.61;69.55;97130.91;110361;1242;69637;-74
2023/04/18 01:22:16;;;;;;;4.40;2.50;;;;;;;6.53;70.04;97131.05;110299;1242;68628;-74
2023/04/18 01:24:46;;;;;;;4.80;2.50;;;;;;;6.47;69.65;97131.41;110451;1242;69299;-74
2023/04/18 01:27:20;;;;;;;5.40;2.60;;;;;;;6.42;69.69;97136.55;110426;1242;58936;-75
2023/04/18 01:29:51;;;;;;;3.40;2.30;;;;;;;6.38;69.87;97134.06;110570;1241;58875;-75
2023/04/18 01:32:23;;;;;;;3.60;2.30;;;;;;;6.33;70.26;97135.74;110494;1242;69783;-76
2023/04/18 01:34:53;;;;;;;3.80;2.30;;;;;;;6.28;70.07;97134.66;110590;1241;68484;-75
2023/04/18 01:37:23;;;;;;;3.30;2.50;;;;;;;6.21;70.82;97132.11;110356;1243;68724;-73
2023/04/18 01:39:54;;;;;;;3.60;2.40;;;;;;;6.15;71.01;97134.20;110575;1241;58950;-73
2023/04/18 01:42:25;;;;;;;4.60;3.10;;;;;;;6.08;71.53;97135.15;110482;1241;58898;-73
2023/04/18 01:44:55;;;;;;;4.90;2.70;;;;;;;6.02;71.25;97136.03;110550;1241;69705;-73
2023/04/18 01:47:25;;;;;;;3.50;2.40;;;;;;;5.95;71.22;97134.00;110496;1242;69194;-73
2023/04/18 01:49:55;;;;;;;3.80;2.40;;;;;;;5.87;71.59;97136.84;110424;1242;68512;-75
2023/04/18 01:52:26;;;;;;;4.20;2.80;;;;;;;5.80;70.98;97132.93;110536;1241;58894;-74
2023/04/18 01:55:01;;;;;;;4.40;2.60;;;;;;;5.73;71.08;97134.37;110457;1241;59346;-74
2023/04/18 01:57:30;;;;;;;4.30;2.70;;;;;;;5.66;71.21;97138.43;110312;1241;71136;-74
2023/04/18 02:00:00;;;;;;;;;;;;;;;5.59;71.89;97137.95;110227;1242;68277;-73
2023/04/18 02:02:31;;;;;;;3.30;2.40;;;;;;;5.50;71.35;97138.09;110450;1242;68347;-73
2023/04/18 02:05:02;;;;;;;5.30;2.70;;;;;;;5.43;71.24;97139.52;110185;1243;59378;-74
2023/04/18 02:07:32;;;;;;;;;;;;;;;5.34;72.07;97141.62;110406;1241;58905;-73
2023/04/18 02:10:02;;;;;;;4.50;2.50;;;;;;;5.22;73.63;97140.41;110217;1242;70031;-73
2023/04/18 02:12:33;;;;;;;3.60;2.40;;;;;;;5.12;73.30;97140.79;110524;1242;69298;-73
2023/04/18 02:15:08;;;;;;;3.10;2.00;;;;;;;5.02;72.96;97145.48;110204;1244;69108;-74
2023/04/18 02:17:38;;;;;;;3.60;2.90;;;;;;;4.93;73.45;97140.92;110261;1242;59769;-74
2023/04/18 02:20:10;;;;;;;4.10;2.10;;;;;;;4.86;74.56;97145.46;110269;1242;59701;-73
2023/04/18 02:22:43;;;;;;;4.90;2.20;;;;;;;4.78;73.02;97146.40;110256;1242;71370;-73
2023/04/18 02:25:13;;;;;;;6.00;3.10;;;;;;;4.71;72.69;97143.02;110449;1240;68879;-74
2023/04/18 02:27:44;;;;;;;4.70;3.00;;;;;;;4.64;73.88;97144.42;110396;1242;68566;-74
2023/04/18 02:30:14;;;;;;;4.30;2.50;;;;;;;4.57;75.48;97147.87;110486;1242;59708;-74
2023/04/18 02:32:46;;;;;;;3.40;2.60;;;;;;;4.50;76.28;97149.44;110395;1242;59743;-74
2023/04/18 02:35:27;;;;;;;5.80;3.00;;;;;;;4.44;75.43;97149.29;110557;1240;71620;-74
2023/04/18 02:38:00;;;;;;;6.80;3.80;;;;;;;4.37;74.98;97153.58;110251;1241;68601;-75
2023/04/18 02:40:32;;;;;;;5.70;3.40;;;;;;;4.32;75.69;97152.98;110526;1242;67592;-74
2023/04/18 02:43:02;;;;;;;7.90;4.60;;;;;;;4.27;79.25;97151.02;110580;1241;59696;-74
2023/04/18 02:45:36;;;;;;;4.50;3.10;;;;;;;4.23;80.28;97153.12;110255;1242;59762;-74
2023/04/18 02:48:08;;;;;;;5.20;3.30;;;;;;;4.18;79.05;97150.29;110243;1242;71452;-73
2023/04/18 02:50:40;;;;;;;4.60;2.70;;;;;;;4.11;79.63;97151.33;110268;1242;69153;-74
2023/04/18 02:53:12;;;;;;;4.20;2.90;;;;;;;4.02;78.40;97145.20;110269;1243;68316;-74
2023/04/18 02:55:54;;;;;;;5.20;2.70;;;;;;;3.95;80.42;97143.67;110261;1242;60206;-74
2023/04/18 02:58:28;;;;;;;4.50;3.00;;;;;;;3.88;77.86;97144.71;110361;1242;59713;-75
2023/04/18 03:01:11;;;;;;;4.70;2.90;;;;;;;3.84;74.99;97141.99;110375;1240;69651;-74
2023/04/18 03:03:53;;;;;;;7.10;4.40;;;;;;;3.81;81.32;97143.68;110529;1241;69644;-74
2023/04/18 03:06:33;;;;;;;5.30;3.10;;;;;;;3.76;80.09;97145.86;110244;1240;70001;-74
2023/04/18 03:09:04;;;;;;;6.10;3.70;;;;;;;3.70;83.22;97148.23;110268;1241;59670;-74
2023/04/18 03:11:36;;;;;;;6.30;4.10;;;;;;;3.60;85.54;97146.11;110535;1241;59678;-74
2023/04/18 03:14:06;;;;;;;4.80;3.40;;;;;;;3.52;85.86;97143.02;110242;1242;72035;-74
2023/04/18 03:16:47;;;;;;;4.30;3.10;;;;;;;3.45;86.60;97142.86;110490;1242;69650;-73
2023/04/18 03:19:23;;;;;;;4.30;3.20;;;;;;;3.41;82.50;97142.53;110175;1242;67537;-74
2023/04/18 03:21:54;;;;;;;5.70;3.60;;;;;;;3.39;86.42;97146.28;110207;1240;59783;-73
2023/04/18 03:24:24;;;;;;;;;;;;;;;3.33;84.66;97144.64;110323;1242;59641;-73
2023/04/18 03:26:56;;;;;;;4.30;3.40;;;;;;;3.31;84.05;97142.53;110160;1241;71454;-73
2023/04/18 03:29:26;;;;;;;5.00;4.00;;;;;;;3.28;85.47;97140.42;110188;1243;69231;-73
2023/04/18 03:31:57;;;;;;;6.30;3.70;;;;;;;3.25;85.76;97143.46;110206;1240;69262;-74
2023/04/18 03:34:27;;;;;;;6.00;3.90;;;;;;;3.22;83.98;97145.69;110295;1242;59634;-73
2023/04/18 03:36:58;;;;;;;6.30;4.20;;;;;;;3.19;85.42;97142.58;110152;1241;59739;-73
2023/04/18 03:39:28;;;;;;;5.60;4.30;;;;;;;3.16;85.76;97142.39;110173;1243;72084;-75
2023/04/18 03:41:58;;;;;;;5.20;4.00;;;;;;;3.15;89.88;97143.64;110143;1243;69192;-74
2023/04/18 03:44:28;;;;;;;5.30;4.00;;;;;;;3.15;87.10;97148.28;110234;1241;68444;-73
2023/04/18 03:46:59;;;;;;;5.20;4.10;;;;;;;3.15;87.86;97145.35;110151;1242;59714;-74
2023/04/18 03:49:29;;;;;;;5.00;3.90;;;;;;;3.16;89.42;97147.20;110154;1241;59668;-73
2023/04/18 03:51:59;;;;;;;5.60;4.20;;;;;;;3.17;91.01;97151.43;110154;1240;70794;-74
2023/04/18 03:54:29;;;;;;;5.80;3.50;;;;;;;3.17;88.18;97153.33;110265;1242;69199;-74
2023/04/18 03:56:58;;;;;;;6.60;4.30;;;;;;;3.16;89.64;97158.02;110318;1241;69058;-74
2023/04/18 03:59:29;;;;;;;5.70;4.30;;;;;;;3.13;87.41;97155.06;110246;1245;59739;-76
2023/04/18 04:01:59;;;;;;;5.40;3.90;;;;;;;3.14;88.11;97156.94;111005;1244;59732;-74
2023/04/18 04:04:30;;;;;;;5.90;4.30;;;;;;;3.15;91.47;97161.20;110535;1240;72188;-75
2023/04/18 04:07:00;;;;;;;7.00;4.20;;;;;;;3.15;88.50;97162.56;110182;1245;70212;-74
2023/04/18 04:09:30;;;;;;;6.90;5.20;;;;;;;3.17;88.63;97162.63;110183;1243;69282;-73
2023/04/18 04:12:01;;;;;;;6.80;4.90;;;;;;;3.22;86.87;97159.63;110161;1242;59689;-74
2023/04/18 04:14:32;;;;;;;6.90;4.50;;;;;;;3.29;86.25;97162.23;110266;1242;59692;-74
2023/04/18 04:17:01;;;;;;;5.80;4.40;;;;;;;3.37;84.71;97163.08;110167;1243;71977;-74
2023/04/18 04:19:32;;;;;;;7.80;6.30;;;;;;;3.42;84.36;97162.64;110155;1245;69817;-74
2023/04/18 04:22:13;;;;;;;9.10;6.80;;;;;;;3.50;88.72;97169.17;110242;1242;69666;-74
2023/04/18 04:24:45;;;;;;;8.40;5.40;;;;;;;3.57;90.17;97171.89;110150;1244;59732;-74
2023/04/18 04:27:17;;;;;;;11.00;6.70;;;;;;;3.67;85.60;97173.52;110145;1245;59655;-75
2023/04/18 04:29:48;;;;;;;7.00;5.50;;;;;;;3.73;88.76;97175.80;110111;1241;71704;-72
2023/04/18 04:32:19;;;;;;;6.10;5.10;;;;;;;3.81;90.51;97180.91;110158;1251;69262;-75
2023/04/18 04:34:49;;;;;;;;;;;;;;;3.94;90.17;97186.11;110112;1252;69743;-75
2023/04/18 04:37:19;;;;;;;5.00;3.80;;;;;;;4.13;87.87;97185.69;110147;1244;59792;-75
2023/04/18 04:40:00;;;;;;;6.30;3.70;;;;;;;4.40;88.48;97185.52;110251;1242;59642;-75
2023/04/18 04:42:42;;;;;;;5.70;3.70;;;;;;;4.68;87.16;97189.23;110155;1240;71795;-74
2023/04/18 04:45:18;;;;;;;4.80;4.00;;;;;;;5.00;86.19;97185.62;110269;1241;69486;-74
2023/04/18 04:47:47;;;;;;;5.90;3.80;;;;;;;5.34;84.30;97181.52;110320;1245;69911;-72
2023/04/18 04:50:18;;;;;;;4.70;3.30;;;;;;;5.61;82.41;97185.41;110132;1243;59682;-73
2023/04/18 04:52:47;;;;;;;5.80;4.20;;;;;;;5.80;81.78;97184.30;110272;1242;59728;-74
2023/04/18 04:55:17;;;;;;;5.10;4.00;;;;;;;6.02;80.59;97186.14;110168;1241;70457;-74
2023/04/18 04:57:46;;;;;;;5.20;3.90;;;;;;;6.26;78.59;97186.48;110279;1242;69832;-74
2023/04/18 05:00:45;;;;;;;6.70;5.10;;;;;;;6.59;77.78;97190.25;110190;1242;69667;-74
2023/04/18 05:03:15;;;;;;;7.20;4.90;;;;;;;7.00;78.52;97190.16;110347;1241;59738;-75
2023/04/18 05:05:45;;;;;;;9.40;6.40;;;;;;;7.43;80.11;97191.09;110373;1241;59737;-74
2023/04/18 05:08:14;;;;;;;8.30;6.20;;;;;;;7.91;80.81;97196.51;110330;1243;71383;-75
2023/04/18 05:10:44;;;;;;;9.30;6.40;;;;;;;8.36;77.66;97194.23;110327;1245;69240;-75
2023/04/18 05:13:13;;;;;;;9.60;5.70;;;;;;;8.53;68.48;97194.52;110169;1245;69418;-74
2023/04/18 05:15:42;;;;;;;7.70;5.80;;;;;;;8.73;66.67;97192.63;110289;1242;59740;-74
2023/04/18 05:18:13;;;;;;;8.90;6.40;;;;;;;8.86;66.82;97190.98;110319;1242;59630;-74
2023/04/18 05:20:42;;;;;;;10.90;6.50;;;;;;;8.96;68.67;97192.05;110263;1241;70839;-74
2023/04/18 05:23:11;;;;;;;7.90;6.00;;;;;;;8.98;67.50;97195.02;110301;1241;69255;-74
2023/04/18 05:25:41;;;;;;;8.80;5.60;;;;;;;9.08;68.87;97199.92;110327;1242;69880;-74
2023/04/18 05:28:10;;;;;;;5.90;4.20;;;;;;;9.09;68.32;97201.73;110292;1242;59753;-74
2023/04/18 05:30:39;;;;;;;4.90;3.40;;;;;;;9.13;65.92;97200.63;110250;1241;59711;-75
2023/04/18 05:33:08;;;;;;;6.40;3.70;;;;;;;9.13;64.75;97199.70;110211;1242;72003;-73
2023/04/18 05:35:37;;;;;;;8.20;4.00;;;;;;;9.10;64.43;97198.54;110234;1242;69875;-73
2023/04/18 05:38:07;;;;;;;5.90;3.40;;;;;;;9.05;64.85;97199.38;110203;1241;69540;-73
2023/04/18 05:40:36;;;;;;;4.60;3.50;;;;;;;9.11;63.50;97195.67;110246;1242;59728;-73
2023/04/18 05:43:05;;;;;;;6.90;4.70;;;;;;;9.02;63.19;97200.29;110260;1242;59698;-73
2023/04/18 05:45:34;;;;;;;5.60;3.20;;;;;;;9.14;64.41;97202.77;110273;1242;71932;-71
2023/04/18 05:48:03;;;;;;;8.30;4.30;;;;;;;9.40;64.75;97199.25;110181;1244;69093;-75
2023/04/18 05:50:32;;;;;;;10.80;4.80;;;;;;;9.54;63.85;97199.59;110405;1241;67347;-73
2023/04/18 05:53:01;;;;;;;7.70;4.50;;;;;;;9.57;63.64;97194.82;110295;1242;59730;-73
2023/04/18 05:55:30;;;;;;;6.70;4.90;;;;;;;9.63;64.03;97191.99;110308;1242;60083;-74
2023/04/18 05:57:59;;;;;;;6.80;4.40;;;;;;;9.80;64.18;97195.99;110464;1242;71292;-72
2023/04/18 06:00:28;;;;;;;8.30;4.90;;;;;;;10.02;64.02;97197.80;110293;1240;68496;-75
2023/04/18 06:02:57;;;;;;;8.50;4.90;;;;;;;10.38;62.68;97196.60;110284;1245;68712;-74
2023/04/18 06:05:27;;;;;;;5.60;3.70;;;;;;;10.66;60.02;97197.19;110276;1241;59694;-75
2023/04/18 06:07:56;;;;;;;5.10;3.80;;;;;;;10.91;59.27;97200.91;111224;1241;59698;-73
2023/04/18 06:10:25;;;;;;;5.10;3.40;;;;;;;11.28;58.70;97201.64;110414;1240;72021;-74
2023/04/18 06:12:54;;;;;;;6.10;3.40;;;;;;;11.71;56.27;97201.91;110395;1246;69083;-73
2023/04/18 06:15:23;;;;;;;6.30;3.80;;;;;;;12.09;54.30;97202.65;110288;1241;69255;-73
2023/04/18 06:17:52;;;;;;;7.20;4.30;;;;;;;12.11;52.82;97201.14;110294;1242;59760;-73
2023/04/18 06:20:22;;;;;;;5.60;4.00;;;;;;;12.33;52.28;97201.23;110275;1243;59679;-75
2023/04/18 06:22:50;;;;;;;6.70;3.50;;;;;;;12.46;51.84;97202.59;110383;1242;70362;-74
2023/04/18 06:25:19;;;;;;;4.90;3.30;;;;;;;12.33;50.75;97200.18;110467;1241;69816;-71
2023/04/18 06:27:48;;;;;;;7.20;3.90;;;;;;;12.33;51.48;97201.75;110367;1242;70274;-75
2023/04/18 06:30:20;;;;;;;5.20;3.40;;;;;;;12.37;51.01;97200.49;110513;1242;59723;-75
2023/04/18 06:32:49;;;;;;;5.50;3.40;;;;;;;12.51;49.72;97202.13;110689;1241;59677;-74
2023/04/18 06:35:18;;;;;;;8.00;4.60;;;;;;;12.55;49.87;97204.83;110635;1242;71246;-75
2023/04/18 06:37:48;;;;;;;5.60;4.80;;;;;;;12.57;50.27;97202.17;110205;1241;68323;-73
2023/04/18 06:40:16;;;;;;;6.70;4.60;;;;;;;12.59;50.13;97202.20;110651;1241;69922;-74
2023/04/18 06:42:45;;;;;;;6.90;5.20;;;;;;;12.68;50.53;97200.68;110437;1242;59746;-72
2023/04/18 06:45:14;;;;;;;8.50;6.00;;;;;;;12.80;50.13;97204.41;110390;1241;59684;-72
2023/04/18 06:47:43;;;;;;;6.70;4.60;;;;;;;12.91;49.64;97206.29;110515;1242;70655;-72
2023/04/18 06:50:13;;;;;;;9.30;5.20;;;;;;;12.86;49.46;97204.75;110549;1243;68348;-70
2023/04/18 06:52:45;;;;;;;8.20;5.40;;;;;;;13.10;48.91;97203.27;110591;1242;69082;-71
2023/04/18 06:55:14;;;;;;;7.00;5.00;;;;;;;13.25;49.23;97198.64;110501;1242;59751;-75
2023/04/18 06:57:43;;;;;;;9.60;5.30;;;;;;;13.24;48.59;97202.91;110379;1242;59628;-74
2023/04/18 07:00:13;;;;;;;8.80;5.50;;;;;;;13.23;49.06;97203.56;110533;1242;71791;-74
2023/04/18 07:02:42;;;;;;;8.00;4.70;;;;;;;13.18;48.34;97203.95;110304;1242;68249;-73
2023/04/18 07:05:11;;;;;;;6.00;4.40;;;;;;;13.26;48.62;97204.67;110478;1242;69706;-74
2023/04/18 07:07:40;;;;;;;6.20;3.90;;;;;;;13.33;48.91;97202.87;110255;1248;59799;-73
2023/04/18 07:10:10;;;;;;;6.70;4.80;;;;;;;13.55;48.82;97203.90;111473;1242;59678;-73
2023/04/18 07:12:39;;;;;;;8.30;4.70;;;;;;;13.61;48.36;97202.17;110847;1241;70894;-74
2023/04/18 07:15:08;;;;;;;7.20;4.70;;;;;;;13.57;47.93;97198.98;110399;1242;68435;-69
2023/04/18 07:17:37;;;;;;;5.50;4.30;;;;;;;13.72;48.28;97200.08;110430;1241;69245;-70
2023/04/18 07:20:07;;;;;;;7.70;4.70;;;;;;;13.65;46.48;97201.47;110440;1241;59775;-69
2023/04/18 07:22:36;;;;;;;7.20;4.60;;;;;;;13.60;47.62;97204.37;110395;1241;59663;-71
2023/04/18 07:25:05;;;;;;;7.90;4.80;;;;;;;13.63;47.97;97206.84;110232;1242;71315;-68
2023/04/18 07:27:35;;;;;;;7.80;4.90;;;;;;;13.50;48.42;97209.79;110170;1244;69271;-69
2023/04/18 07:30:05;;;;;;;7.60;5.20;;;;;;;13.53;48.71;97208.95;110290;1241;69725;-70
2023/04/18 07:32:34;;;;;;;7.70;4.90;;;;;;;13.58;47.99;97205.23;110317;1244;59696;-70
2023/04/18 07:35:04;;;;;;;5.70;4.20;;;;;;;13.71;48.48;97199.66;110332;1241;59742;-69
2023/04/18 07:37:33;;;;;;;5.90;4.00;;;;;;;13.90;47.62;97202.02;110149;1245;71420;-70
2023/04/18 07:40:03;;;;;;;6.10;3.90;;;;;;;13.85;47.26;97201.77;110197;1245;69279;-69
2023/04/18 07:42:32;;;;;;;6.40;4.20;;;;;;;13.50;46.88;97207.33;110303;1242;69379;-70
2023/04/18 07:45:01;;;;;;;7.50;3.90;;;;;;;13.37;46.94;97205.64;110110;1244;59731;-69
2023/04/18 07:47:30;;;;;;;4.50;3.70;;;;;;;13.52;46.64;97210.24;110217;1243;59755;-69
2023/04/18 07:50:01;;;;;;;5.60;3.30;;;;;;;13.45;46.56;97210.74;110359;1242;70942;-70
2023/04/18 07:52:30;;;;;;;4.10;3.20;;;;;;;13.50;46.39;97210.45;110334;1242;69242;-69
2023/04/18 07:54:59;;;;;;;4.70;2.90;;;;;;;13.12;46.80;97212.37;110313;1242;68815;-69
2023/04/18 07:57:28;;;;;;;4.80;3.30;;;;;;;13.22;46.38;97209.37;110255;1242;59674;-70
2023/04/18 07:59:56;;;;;;;4.80;3.00;;;;;;;13.27;46.44;97213.66;110303;1242;59699;-68
2023/04/18 08:02:25;;;;;;;4.50;3.00;;;;;;;13.27;46.57;97213.33;110240;1242;71196;-70
2023/04/18 08:04:55;;;;;;;6.40;3.20;;;;;;;13.33;46.12;97217.38;110243;1242;69798;-69
2023/04/18 08:07:24;;;;;;;4.40;2.90;;;;;;;13.42;45.28;97215.86;110116;1245;67677;-70
2023/04/18 08:09:53;;;;;;;6.30;3.40;;;;;;;13.37;44.43;97214.94;110271;1247;59734;-71
2023/04/18 08:12:22;;;;;;;5.10;3.40;;;;;;;13.33;43.51;97211.44;110408;1241;59679;-70
2023/04/18 08:14:52;;;;;;;4.30;3.90;;;;;;;13.53;43.56;97213.31;110283;1245;71447;-69
2023/04/18 08:17:22;;;;;;;5.30;3.40;;;;;;;13.58;43.63;97212.21;110383;1242;69915;-71
2023/04/18 08:19:50;;;;;;;5.40;3.20;;;;;;;13.49;43.99;97214.02;110485;1240;68571;-69
2023/04/18 08:22:19;;;;;;;3.80;2.80;;;;;;;13.58;43.62;97216.45;110186;1244;59734;-69
2023/04/18 08:24:49;;;;;;;5.00;2.70;;;;;;;13.58;44.12;97215.67;110170;1245;59793;-69
2023/04/18 08:27:32;;;;;;;4.70;2.90;;;;;;;13.66;44.27;97216.55;110255;1243;71290;-69
2023/04/18 08:30:03;;;;;;;6.70;3.10;;;;;;;13.82;43.40;97212.19;110290;1245;68775;-68
2023/04/18 08:32:32;;;;;;;5.40;2.80;;;;;;;14.03;42.94;97212.91;110243;1241;69680;-70
2023/04/18 08:35:02;;;;;;;3.70;2.60;;;;;;;13.75;42.91;97211.19;110102;1247;59686;-69
2023/04/18 08:37:34;;;;;;;;;;;;;;;13.45;43.92;97209.52;109877;1245;540561;-69
2023/04/18 08:40:05;;;;;;;4.50;3.00;;;;;;;14.16;43.04;97216.26;110344;1241;71814;-68
2023/04/18 08:42:37;;;;;;;3.90;2.80;;;;;;;14.90;41.13;97216.92;110309;1242;68265;-68
2023/04/18 08:45:08;;;;;;;4.20;2.70;;;;;;;15.13;40.32;97212.30;110266;1241;69100;-69
2023/04/18 08:47:37;;;;;;;4.10;2.60;;;;;;;15.21;39.14;97206.65;110198;1245;59740;-69
2023/04/18 08:50:08;;;;;;;3.00;2.40;;;;;;;15.41;40.10;97207.55;110279;1242;59665;-69
2023/04/18 08:52:38;;;;;;;3.60;2.60;;;;;;;15.51;39.95;97210.57;110293;1241;72143;-70
2023/04/18 08:55:09;;;;;;;3.60;2.50;;;;;;;15.18;39.81;97208.80;110349;1243;69312;-69
2023/04/18 08:57:38;;;;;;;4.10;2.60;;;;;;;14.87;40.37;97205.11;110251;1242;69285;-70
2023/04/18 09:00:10;;;;;;;3.90;2.40;;;;;;;14.15;41.83;97205.23;110183;1251;59681;-71
2023/04/18 09:02:41;;;;;;;4.70;2.10;;;;;;;14.29;41.58;97207.58;110186;1245;59750;-70
2023/04/18 09:05:17;;;;;;;4.40;2.40;;;;;;;14.81;41.20;97207.27;110331;1245;69923;-69
2023/04/18 09:07:48;;;;;;;4.80;2.60;;;;;;;14.66;40.56;97205.11;110308;1243;69770;-71
2023/04/18 09:10:32;;;;;;;4.60;2.60;;;;;;;14.64;41.58;97205.85;110223;1242;69194;-69
2023/04/18 09:13:03;;;;;;;5.30;2.80;;;;;;;14.14;42.46;97205.48;110361;1242;59665;-70
2023/04/18 09:15:33;;;;;;;4.20;2.60;;;;;;;14.26;42.46;97204.20;110413;1245;59665;-69
2023/04/18 09:18:09;;;;;;;5.70;2.30;;;;;;;14.01;42.81;97203.64;110294;1242;71315;-70
2023/04/18 09:20:43;;;;;;;5.00;3.10;;;;;;;14.46;43.04;97202.91;110253;1242;69018;-69
2023/04/18 09:23:23;;;;;;;4.90;3.00;;;;;;;14.78;42.38;97204.73;110339;1248;70069;-70
2023/04/18 09:25:53;;;;;;;4.20;3.20;;;;;;;14.88;41.81;97202.58;110133;1246;59764;-69
2023/04/18 09:28:28;;;;;;;3.90;3.10;;;;;;;14.88;41.63;97199.41;110296;1242;60016;-69
2023/04/18 09:31:16;;;;;;;4.00;3.00;;;;;;;14.63;41.68;97195.42;110146;1242;70625;-70
2023/04/18 09:33:55;;;;;;;5.10;2.70;;;;;;;15.06;41.92;97194.33;110339;1243;69799;-69
2023/04/18 09:36:26;;;;;;;4.40;2.70;;;;;;;15.14;42.62;97188.86;110138;1246;68560;-69
2023/04/18 09:38:55;;;;;;;4.50;3.00;;;;;;;15.13;43.42;97188.45;110165;1244;59812;-70
2023/04/18 09:41:25;;;;;;;5.40;3.10;;;;;;;14.98;42.85;97190.88;110266;1242;59696;-69
2023/04/18 09:44:10;;;;;;;5.60;2.90;;;;;;;14.91;42.58;97198.52;110304;1243;72127;-69
2023/04/18 09:46:44;;;;;;;4.20;2.70;;;;;;;14.81;42.31;97193.20;110329;1242;69096;-70
2023/04/18 09:49:17;;;;;;;4.20;3.10;;;;;;;14.99;42.66;97192.22;110297;1242;69875;-69
2023/04/18 09:51:49;;;;;;;4.20;2.70;;;;;;;15.21;42.33;97186.61;110306;1243;59823;-70
2023/04/18 09:54:21;;;;;;;5.40;3.10;;;;;;;15.46;42.13;97190.51;110311;1242;59636;-69
2023/04/18 09:56:53;;;;;;;4.50;3.70;;;;;;;15.44;41.49;97188.96;110453;1242;70423;-69
2023/04/18 09:59:47;;;;;;;5.00;3.20;;;;;;;15.39;41.76;97188.73;110296;1242;68503;-70
2023/04/18 10:02:21;;;;;;;5.20;3.50;;;;;;;15.29;41.25;97188.81;110437;1243;69063;-70
2023/04/18 10:04:53;;;;;;;6.70;2.90;;;;;;;15.04;41.88;97184.02;110150;1250;59732;-70
2023/04/18 10:07:24;;;;;;;4.10;2.80;;;;;;;14.87;42.06;97183.68;110316;1242;59694;-69
2023/04/18 10:09:53;;;;;;;4.00;3.00;;;;;;;14.58;42.83;97186.16;110246;1247;71398;-70
2023/04/18 10:12:24;;;;;;;5.70;2.90;;;;;;;14.50;42.80;97186.76;110302;1245;68263;-71
2023/04/18 10:14:53;;;;;;;4.20;2.60;;;;;;;14.48;42.91;97185.23;110252;1242;69905;-70
2023/04/18 10:17:22;;;;;;;4.10;3.00;;;;;;;14.63;42.69;97181.50;110879;1242;59725;-70
2023/04/18 10:20:11;;;;;;;6.10;3.00;;;;;;;14.56;43.23;97181.98;110361;1247;59672;-71
2023/04/18 10:22:40;;;;;;;5.50;3.00;;;;;;;14.73;42.72;97183.55;110381;1241;71715;-70
2023/04/18 10:25:09;;;;;;;4.80;2.80;;;;;;;15.08;42.00;97179.95;110427;1242;69244;-69
2023/04/18 10:27:47;;;;;;;4.10;2.90;;;;;;;15.26;40.99;97179.96;110352;1242;68323;-70
2023/04/18 10:30:17;;;;;;;7.90;3.20;;;;;;;15.47;40.60;97179.39;110278;1243;59667;-70
2023/04/18 10:32:46;;;;;;;4.70;3.00;;;;;;;15.34;41.31;97179.36;110165;1245;59690;-70
2023/04/18 10:35:15;;;;;;;5.30;2.90;;;;;;;15.33;41.83;97178.10;110322;1242;71338;-70
2023/04/18 10:37:51;;;;;;;4.80;2.80;;;;;;;15.41;40.41;97176.98;110341;1242;69360;-69
2023/04/18 10:40:33;;;;;;;4.40;2.80;;;;;;;15.02;41.33;97180.29;110362;1242;68678;-69
2023/04/18 10:43:02;;;;;;;3.80;2.60;;;;;;;15.02;41.32;97173.83;110422;1241;59721;-69
2023/04/18 10:45:35;;;;;;;4.70;3.20;;;;;;;14.71;42.33;97177.96;110302;1243;59727;-68
2023/04/18 10:48:24;;;;;;;4.00;2.70;;;;;;;14.78;42.92;97174.15;110351;1242;71926;-67
2023/04/18 10:51:17;;;;;;;4.00;2.60;;;;;;;14.68;41.72;97176.67;110361;1242;69805;-68
2023/04/18 10:53:56;;;;;;;4.00;2.50;;;;;;;14.48;42.27;97172.94;110463;1242;69809;-69
2023/04/18 10:56:26;;;;;;;4.30;2.30;;;;;;;14.27;42.36;97167.66;110339;1243;59741;-71
2023/04/18 10:59:01;;;;;;;4.90;3.00;;;;;;;14.30;42.16;97168.94;110355;1242;59708;-70
2023/04/18 11:01:31;;;;;;;5.70;3.00;;;;;;;14.20;42.11;97171.44;110318;1242;71947;-70
2023/04/18 11:04:00;;;;;;;6.50;3.00;;;;;;;14.22;42.99;97166.86;110251;1242;69890;-69
2023/04/18 11:06:30;;;;;;;4.60;2.50;;;;;;;14.13;42.61;97166.46;110361;1241;69249;-69
2023/04/18 11:09:09;;;;;;;6.50;3.10;;;;;;;13.99;42.93;97172.14;110298;1243;59741;-69
2023/04/18 11:11:39;;;;;;;;;;;;;;;14.18;44.00;97173.68;110325;1242;59689;-69
2023/04/18 11:14:08;;;;;;;5.40;2.90;;;;;;;14.42;42.72;97171.73;110317;1241;70918;-69
2023/04/18 11:16:38;;;;;;;2.50;2.10;;;;;;;14.49;42.58;97168.45;110304;1243;69073;-69
2023/04/18 11:19:19;;;;;;;4.20;2.30;;;;;;;14.77;42.59;97170.02;110568;1242;68323;-70
2023/04/18 11:21:48;;;;;;;3.80;2.80;;;;;;;14.96;41.75;97166.71;110361;1242;59696;-71
2023/04/18 11:24:23;;;;;;;4.90;2.70;;;;;;;15.03;41.26;97166.52;110320;1242;59683;-69
2023/04/18 11:26:54;;;;;;;3.40;2.50;;;;;;;14.94;41.96;97162.14;110329;1242;71052;-69
2023/04/18 11:29:23;;;;;;;3.70;2.50;;;;;;;15.00;41.96;97158.19;110309;1241;69091;-71
2023/04/18 11:31:52;;;;;;;4.90;2.90;;;;;;;14.91;40.99;97156.29;110326;1242;69860;-70
2023/04/18 11:34:29;;;;;;;3.80;3.00;;;;;;;14.70;42.55;97156.80;110255;1242;59815;-71
2023/04/18 11:37:06;;;;;;;4.80;2.80;;;;;;;14.67;42.46;97155.05;110299;1242;59630;-71
2023/04/18 11:39:42;;;;;;;5.80;2.90;;;;;;;14.56;42.48;97154.80;110415;1241;70637;-69
2023/04/18 11:42:11;;;;;;;8.10;3.00;;;;;;;14.66;42.39;97151.64;110317;1242;69636;-70
2023/04/18 11:44:45;;;;;;;3.60;2.60;;;;;;;14.64;41.96;97150.87;110472;1242;69064;-69
2023/04/18 11:47:27;;;;;;;4.30;2.70;;;;;;;14.70;41.73;97147.92;110342;1243;60120;-70
2023/04/18 11:50:02;;;;;;;4.60;2.80;;;;;;;14.66;41.90;97142.46;110355;1242;59767;-70
2023/04/18 11:52:33;;;;;;;6.50;3.10;;;;;;;14.58;42.49;97141.50;110126;1245;72312;-69